sensor_id;sensor_type;location;lat;lon;timestamp;P1;durP1;ratioP1;P2;durP2;ratioP2
48092;SDS011;33873;47.442;18.902;2023-07-31T00:00:45;4.47;;;2.67;;
48092;SDS011;33873;47.442;18.902;2023-07-31T00:03:13;7.07;;;3.15;;
48092;SDS011;33873;47.442;18.902;2023-07-31T00:05:41;4.85;;;3.15;;
48092;SDS011;33873;47.442;18.902;2023-07-31T00:08:09;4.30;;;2.25;;
48092;SDS011;33873;47.442;18.902;2023-07-31T00:10:37;8.13;;;3.47;;
48092;SDS011;33873;47.442;18.902;2023-07-31T00:13:04;4.18;;;2.22;;
48092;SDS011;33873;47.442;18.902;2023-07-31T00:15:32;5.15;;;2.47;;
48092;SDS011;33873;47.442;18.902;2023-07-31T00:17:59;4.50;;;2.67;;
48092;SDS011;33873;47.442;18.902;2023-07-31T00:20:28;4.18;;;2.05;;
48092;SDS011;33873;47.442;18.902;2023-07-31T00:22:55;6.47;;;2.83;;
48092;SDS011;33873;47.442;18.902;2023-07-31T00:25:23;6.50;;;3.00;;
48092;SDS011;33873;47.442;18.902;2023-07-31T00:27:51;4.90;;;2.67;;
48092;SDS011;33873;47.442;18.902;2023-07-31T00:30:18;5.07;;;2.62;;
48092;SDS011;33873;47.442;18.902;2023-07-31T00:32:46;8.82;;;2.80;;
48092;SDS011;33873;47.442;18.902;2023-07-31T00:35:14;4.32;;;2.35;;
48092;SDS011;33873;47.442;18.902;2023-07-31T00:37:41;4.10;;;2.37;;
48092;SDS011;33873;47.442;18.902;2023-07-31T00:40:09;5.45;;;2.87;;
48092;SDS011;33873;47.442;18.902;2023-07-31T00:42:37;8.98;;;3.53;;
48092;SDS011;33873;47.442;18.902;2023-07-31T00:45:04;12.37;;;3.37;;
48092;SDS011;33873;47.442;18.902;2023-07-31T00:47:32;6.30;;;2.53;;
48092;SDS011;33873;47.442;18.902;2023-07-31T00:50:00;5.25;;;2.85;;
48092;SDS011;33873;47.442;18.902;2023-07-31T00:52:28;9.65;;;3.00;;
48092;SDS011;33873;47.442;18.902;2023-07-31T00:54:56;4.07;;;2.33;;
48092;SDS011;33873;47.442;18.902;2023-07-31T00:57:23;5.10;;;2.47;;
48092;SDS011;33873;47.442;18.902;2023-07-31T00:59:51;5.40;;;2.90;;
48092;SDS011;33873;47.442;18.902;2023-07-31T01:02:19;5.37;;;2.67;;
48092;SDS011;33873;47.442;18.902;2023-07-31T01:04:47;3.70;;;2.33;;
48092;SDS011;33873;47.442;18.902;2023-07-31T01:07:20;4.30;;;2.55;;
48092;SDS011;33873;47.442;18.902;2023-07-31T01:12:47;7.20;;;2.80;;
48092;SDS011;33873;47.442;18.902;2023-07-31T01:15:15;4.25;;;2.65;;
48092;SDS011;33873;47.442;18.902;2023-07-31T01:17:44;4.65;;;2.60;;
48092;SDS011;33873;47.442;18.902;2023-07-31T01:20:22;5.37;;;2.60;;
48092;SDS011;33873;47.442;18.902;2023-07-31T01:25:44;7.07;;;2.97;;
48092;SDS011;33873;47.442;18.902;2023-07-31T01:28:19;8.88;;;2.72;;
48092;SDS011;33873;47.442;18.902;2023-07-31T01:30:48;6.43;;;3.33;;
48092;SDS011;33873;47.442;18.902;2023-07-31T01:33:16;5.53;;;2.97;;
48092;SDS011;33873;47.442;18.902;2023-07-31T01:35:44;5.68;;;2.67;;
48092;SDS011;33873;47.442;18.902;2023-07-31T01:38:13;5.68;;;2.95;;
48092;SDS011;33873;47.442;18.902;2023-07-31T01:40:41;4.93;;;2.75;;
48092;SDS011;33873;47.442;18.902;2023-07-31T01:43:09;7.37;;;2.75;;
48092;SDS011;33873;47.442;18.902;2023-07-31T01:45:37;5.30;;;2.55;;
48092;SDS011;33873;47.442;18.902;2023-07-31T01:48:05;5.30;;;2.72;;
48092;SDS011;33873;47.442;18.902;2023-07-31T01:50:32;4.87;;;2.17;;
48092;SDS011;33873;47.442;18.902;2023-07-31T01:53:00;4.18;;;2.35;;
48092;SDS011;33873;47.442;18.902;2023-07-31T01:55:28;3.70;;;2.35;;
48092;SDS011;33873;47.442;18.902;2023-07-31T01:57:55;9.43;;;2.95;;
48092;SDS011;33873;47.442;18.902;2023-07-31T02:00:23;3.12;;;1.92;;
48092;SDS011;33873;47.442;18.902;2023-07-31T02:02:50;2.78;;;1.40;;
48092;SDS011;33873;47.442;18.902;2023-07-31T02:05:19;4.10;;;1.90;;
48092;SDS011;33873;47.442;18.902;2023-07-31T02:07:46;3.40;;;1.73;;
48092;SDS011;33873;47.442;18.902;2023-07-31T02:10:15;3.70;;;1.65;;
48092;SDS011;33873;47.442;18.902;2023-07-31T02:12:42;3.53;;;2.12;;
48092;SDS011;33873;47.442;18.902;2023-07-31T02:15:10;3.67;;;1.87;;
48092;SDS011;33873;47.442;18.902;2023-07-31T02:17:37;3.75;;;2.15;;
48092;SDS011;33873;47.442;18.902;2023-07-31T02:20:06;4.78;;;2.42;;
48092;SDS011;33873;47.442;18.902;2023-07-31T02:22:34;3.42;;;1.98;;
48092;SDS011;33873;47.442;18.902;2023-07-31T02:25:02;2.83;;;1.65;;
48092;SDS011;33873;47.442;18.902;2023-07-31T02:27:30;6.80;;;2.03;;
48092;SDS011;33873;47.442;18.902;2023-07-31T02:29:57;3.80;;;1.58;;
48092;SDS011;33873;47.442;18.902;2023-07-31T02:32:26;4.37;;;2.37;;
48092;SDS011;33873;47.442;18.902;2023-07-31T02:34:54;4.22;;;2.05;;
48092;SDS011;33873;47.442;18.902;2023-07-31T02:37:22;4.10;;;1.60;;
48092;SDS011;33873;47.442;18.902;2023-07-31T02:39:50;3.92;;;1.55;;
48092;SDS011;33873;47.442;18.902;2023-07-31T02:42:17;5.07;;;2.05;;
48092;SDS011;33873;47.442;18.902;2023-07-31T02:44:45;3.75;;;2.20;;
48092;SDS011;33873;47.442;18.902;2023-07-31T02:47:12;5.10;;;2.12;;
48092;SDS011;33873;47.442;18.902;2023-07-31T02:49:40;2.58;;;1.67;;
48092;SDS011;33873;47.442;18.902;2023-07-31T02:52:08;2.17;;;1.17;;
48092;SDS011;33873;47.442;18.902;2023-07-31T02:54:35;4.20;;;1.85;;
48092;SDS011;33873;47.442;18.902;2023-07-31T02:57:03;5.15;;;1.90;;
48092;SDS011;33873;47.442;18.902;2023-07-31T02:59:31;3.55;;;1.55;;
48092;SDS011;33873;47.442;18.902;2023-07-31T03:01:59;7.35;;;1.30;;
48092;SDS011;33873;47.442;18.902;2023-07-31T03:04:27;5.60;;;1.62;;
48092;SDS011;33873;47.442;18.902;2023-07-31T03:06:55;3.75;;;1.80;;
48092;SDS011;33873;47.442;18.902;2023-07-31T03:09:23;3.67;;;1.70;;
48092;SDS011;33873;47.442;18.902;2023-07-31T03:11:50;4.60;;;1.95;;
48092;SDS011;33873;47.442;18.902;2023-07-31T03:14:18;3.30;;;1.83;;
48092;SDS011;33873;47.442;18.902;2023-07-31T03:16:45;3.58;;;1.55;;
48092;SDS011;33873;47.442;18.902;2023-07-31T03:19:14;3.78;;;1.90;;
48092;SDS011;33873;47.442;18.902;2023-07-31T03:21:41;4.05;;;1.95;;
48092;SDS011;33873;47.442;18.902;2023-07-31T03:24:09;1.83;;;1.20;;
48092;SDS011;33873;47.442;18.902;2023-07-31T03:26:37;4.03;;;1.77;;
48092;SDS011;33873;47.442;18.902;2023-07-31T03:29:05;3.50;;;1.50;;
48092;SDS011;33873;47.442;18.902;2023-07-31T03:31:33;4.32;;;1.77;;
48092;SDS011;33873;47.442;18.902;2023-07-31T03:34:01;2.72;;;1.52;;
48092;SDS011;33873;47.442;18.902;2023-07-31T03:36:29;2.10;;;1.20;;
48092;SDS011;33873;47.442;18.902;2023-07-31T03:38:57;3.58;;;1.45;;
48092;SDS011;33873;47.442;18.902;2023-07-31T03:41:26;4.85;;;1.85;;
48092;SDS011;33873;47.442;18.902;2023-07-31T03:43:54;3.62;;;1.87;;
48092;SDS011;33873;47.442;18.902;2023-07-31T03:46:26;3.65;;;1.80;;
48092;SDS011;33873;47.442;18.902;2023-07-31T03:48:54;3.00;;;1.40;;
48092;SDS011;33873;47.442;18.902;2023-07-31T03:51:22;2.37;;;1.20;;
48092;SDS011;33873;47.442;18.902;2023-07-31T03:53:50;2.83;;;1.40;;
48092;SDS011;33873;47.442;18.902;2023-07-31T03:56:18;7.30;;;1.95;;
48092;SDS011;33873;47.442;18.902;2023-07-31T03:58:45;2.67;;;1.30;;
48092;SDS011;33873;47.442;18.902;2023-07-31T04:01:13;4.25;;;1.85;;
48092;SDS011;33873;47.442;18.902;2023-07-31T04:03:41;4.12;;;1.77;;
48092;SDS011;33873;47.442;18.902;2023-07-31T04:06:08;2.67;;;1.58;;
48092;SDS011;33873;47.442;18.902;2023-07-31T04:08:37;6.43;;;1.77;;
48092;SDS011;33873;47.442;18.902;2023-07-31T04:11:05;4.07;;;1.83;;
48092;SDS011;33873;47.442;18.902;2023-07-31T04:13:32;2.55;;;1.35;;
48092;SDS011;33873;47.442;18.902;2023-07-31T04:16:01;3.00;;;1.42;;
48092;SDS011;33873;47.442;18.902;2023-07-31T04:18:28;2.47;;;1.30;;
48092;SDS011;33873;47.442;18.902;2023-07-31T04:20:58;2.35;;;1.35;;
48092;SDS011;33873;47.442;18.902;2023-07-31T04:23:26;3.75;;;1.98;;
48092;SDS011;33873;47.442;18.902;2023-07-31T04:25:53;2.50;;;1.30;;
48092;SDS011;33873;47.442;18.902;2023-07-31T04:28:21;4.25;;;1.70;;
48092;SDS011;33873;47.442;18.902;2023-07-31T04:30:49;2.67;;;1.73;;
48092;SDS011;33873;47.442;18.902;2023-07-31T04:33:17;2.80;;;1.67;;
48092;SDS011;33873;47.442;18.902;2023-07-31T04:35:51;2.20;;;1.23;;
48092;SDS011;33873;47.442;18.902;2023-07-31T04:38:20;3.20;;;1.60;;
48092;SDS011;33873;47.442;18.902;2023-07-31T04:40:48;3.70;;;1.27;;
48092;SDS011;33873;47.442;18.902;2023-07-31T04:43:16;3.90;;;1.40;;
48092;SDS011;33873;47.442;18.902;2023-07-31T04:45:47;2.92;;;1.48;;
48092;SDS011;33873;47.442;18.902;2023-07-31T04:48:15;3.35;;;1.37;;
48092;SDS011;33873;47.442;18.902;2023-07-31T04:50:42;3.58;;;1.52;;
48092;SDS011;33873;47.442;18.902;2023-07-31T04:53:10;3.62;;;1.58;;
48092;SDS011;33873;47.442;18.902;2023-07-31T04:55:38;2.55;;;1.40;;
48092;SDS011;33873;47.442;18.902;2023-07-31T04:58:05;6.37;;;1.50;;
48092;SDS011;33873;47.442;18.902;2023-07-31T05:00:33;2.33;;;1.08;;
48092;SDS011;33873;47.442;18.902;2023-07-31T05:03:01;2.60;;;1.25;;
48092;SDS011;33873;47.442;18.902;2023-07-31T05:05:28;2.45;;;1.15;;
48092;SDS011;33873;47.442;18.902;2023-07-31T05:07:56;4.30;;;1.37;;
48092;SDS011;33873;47.442;18.902;2023-07-31T05:10:24;8.20;;;1.42;;
48092;SDS011;33873;47.442;18.902;2023-07-31T05:12:52;1.75;;;1.23;;
48092;SDS011;33873;47.442;18.902;2023-07-31T05:15:19;2.03;;;1.10;;
48092;SDS011;33873;47.442;18.902;2023-07-31T05:17:47;3.22;;;1.33;;
48092;SDS011;33873;47.442;18.902;2023-07-31T05:20:15;2.58;;;1.17;;
48092;SDS011;33873;47.442;18.902;2023-07-31T05:22:43;2.42;;;1.02;;
48092;SDS011;33873;47.442;18.902;2023-07-31T05:25:10;4.50;;;1.20;;
48092;SDS011;33873;47.442;18.902;2023-07-31T05:27:38;2.80;;;1.08;;
48092;SDS011;33873;47.442;18.902;2023-07-31T05:30:06;2.97;;;1.15;;
48092;SDS011;33873;47.442;18.902;2023-07-31T05:32:34;3.33;;;1.15;;
48092;SDS011;33873;47.442;18.902;2023-07-31T05:35:01;3.37;;;1.42;;
48092;SDS011;33873;47.442;18.902;2023-07-31T05:37:29;2.87;;;1.45;;
48092;SDS011;33873;47.442;18.902;2023-07-31T05:39:57;4.20;;;1.05;;
48092;SDS011;33873;47.442;18.902;2023-07-31T05:42:25;3.75;;;1.33;;
48092;SDS011;33873;47.442;18.902;2023-07-31T05:44:52;5.72;;;1.85;;
48092;SDS011;33873;47.442;18.902;2023-07-31T05:47:20;2.08;;;1.30;;
48092;SDS011;33873;47.442;18.902;2023-07-31T05:49:48;2.30;;;0.95;;
48092;SDS011;33873;47.442;18.902;2023-07-31T05:52:17;7.12;;;1.37;;
48092;SDS011;33873;47.442;18.902;2023-07-31T05:54:44;3.62;;;1.55;;
48092;SDS011;33873;47.442;18.902;2023-07-31T05:57:13;4.00;;;1.62;;
48092;SDS011;33873;47.442;18.902;2023-07-31T05:59:41;3.33;;;1.42;;
48092;SDS011;33873;47.442;18.902;2023-07-31T06:02:08;4.03;;;1.62;;
48092;SDS011;33873;47.442;18.902;2023-07-31T06:04:36;3.55;;;1.55;;
48092;SDS011;33873;47.442;18.902;2023-07-31T06:07:04;2.65;;;1.05;;
48092;SDS011;33873;47.442;18.902;2023-07-31T06:09:32;4.05;;;1.75;;
48092;SDS011;33873;47.442;18.902;2023-07-31T06:11:59;5.47;;;1.05;;
48092;SDS011;33873;47.442;18.902;2023-07-31T06:14:27;14.25;;;1.98;;
48092;SDS011;33873;47.442;18.902;2023-07-31T06:16:55;3.28;;;1.27;;
48092;SDS011;33873;47.442;18.902;2023-07-31T06:19:22;2.00;;;1.17;;
48092;SDS011;33873;47.442;18.902;2023-07-31T06:21:50;3.22;;;1.58;;
48092;SDS011;33873;47.442;18.902;2023-07-31T06:24:18;7.25;;;1.67;;
48092;SDS011;33873;47.442;18.902;2023-07-31T06:26:48;2.35;;;1.15;;
48092;SDS011;33873;47.442;18.902;2023-07-31T06:29:15;2.17;;;1.15;;
48092;SDS011;33873;47.442;18.902;2023-07-31T06:31:43;2.35;;;1.00;;
48092;SDS011;33873;47.442;18.902;2023-07-31T06:34:11;7.28;;;1.75;;
48092;SDS011;33873;47.442;18.902;2023-07-31T06:36:39;5.95;;;1.20;;
48092;SDS011;33873;47.442;18.902;2023-07-31T06:39:06;1.52;;;0.90;;
48092;SDS011;33873;47.442;18.902;2023-07-31T06:41:34;2.35;;;0.98;;
48092;SDS011;33873;47.442;18.902;2023-07-31T06:44:03;2.20;;;1.00;;
48092;SDS011;33873;47.442;18.902;2023-07-31T06:46:30;2.28;;;1.12;;
48092;SDS011;33873;47.442;18.902;2023-07-31T06:48:58;2.17;;;1.15;;
48092;SDS011;33873;47.442;18.902;2023-07-31T06:51:26;2.47;;;1.17;;
48092;SDS011;33873;47.442;18.902;2023-07-31T06:53:53;3.75;;;1.30;;
48092;SDS011;33873;47.442;18.902;2023-07-31T06:56:21;1.85;;;1.08;;
48092;SDS011;33873;47.442;18.902;2023-07-31T06:58:49;2.33;;;0.93;;
48092;SDS011;33873;47.442;18.902;2023-07-31T07:01:17;3.62;;;1.35;;
48092;SDS011;33873;47.442;18.902;2023-07-31T07:03:44;6.07;;;1.85;;
48092;SDS011;33873;47.442;18.902;2023-07-31T07:06:12;3.95;;;1.33;;
48092;SDS011;33873;47.442;18.902;2023-07-31T07:08:40;5.40;;;1.10;;
48092;SDS011;33873;47.442;18.902;2023-07-31T07:11:07;3.20;;;1.40;;
48092;SDS011;33873;47.442;18.902;2023-07-31T07:13:35;2.85;;;1.35;;
48092;SDS011;33873;47.442;18.902;2023-07-31T07:16:05;2.50;;;1.20;;
48092;SDS011;33873;47.442;18.902;2023-07-31T07:18:33;2.05;;;1.05;;
48092;SDS011;33873;47.442;18.902;2023-07-31T07:21:03;2.97;;;1.00;;
48092;SDS011;33873;47.442;18.902;2023-07-31T07:23:31;2.05;;;1.08;;
48092;SDS011;33873;47.442;18.902;2023-07-31T07:25:59;6.53;;;1.50;;
48092;SDS011;33873;47.442;18.902;2023-07-31T07:28:27;3.50;;;1.55;;
48092;SDS011;33873;47.442;18.902;2023-07-31T07:30:55;2.83;;;1.27;;
48092;SDS011;33873;47.442;18.902;2023-07-31T07:33:23;2.67;;;1.33;;
48092;SDS011;33873;47.442;18.902;2023-07-31T07:35:51;2.62;;;1.30;;
48092;SDS011;33873;47.442;18.902;2023-07-31T07:38:19;1.35;;;0.98;;
48092;SDS011;33873;47.442;18.902;2023-07-31T07:40:46;3.87;;;1.15;;
48092;SDS011;33873;47.442;18.902;2023-07-31T07:43:17;2.75;;;1.20;;
48092;SDS011;33873;47.442;18.902;2023-07-31T07:45:45;3.15;;;1.35;;
48092;SDS011;33873;47.442;18.902;2023-07-31T07:48:12;2.47;;;1.23;;
48092;SDS011;33873;47.442;18.902;2023-07-31T07:50:40;2.55;;;1.50;;
48092;SDS011;33873;47.442;18.902;2023-07-31T07:53:08;4.70;;;1.20;;
48092;SDS011;33873;47.442;18.902;2023-07-31T07:55:37;8.38;;;1.83;;
48092;SDS011;33873;47.442;18.902;2023-07-31T07:58:05;2.65;;;1.17;;
48092;SDS011;33873;47.442;18.902;2023-07-31T08:00:33;6.87;;;1.73;;
48092;SDS011;33873;47.442;18.902;2023-07-31T08:03:00;4.55;;;1.55;;
48092;SDS011;33873;47.442;18.902;2023-07-31T08:05:28;5.75;;;1.20;;
48092;SDS011;33873;47.442;18.902;2023-07-31T08:07:59;3.03;;;1.05;;
48092;SDS011;33873;47.442;18.902;2023-07-31T08:10:27;2.72;;;1.33;;
48092;SDS011;33873;47.442;18.902;2023-07-31T08:12:55;5.00;;;1.52;;
48092;SDS011;33873;47.442;18.902;2023-07-31T08:15:22;2.50;;;1.20;;
48092;SDS011;33873;47.442;18.902;2023-07-31T08:17:50;2.30;;;1.02;;
48092;SDS011;33873;47.442;18.902;2023-07-31T08:20:18;3.90;;;1.50;;
48092;SDS011;33873;47.442;18.902;2023-07-31T08:22:45;2.70;;;1.33;;
48092;SDS011;33873;47.442;18.902;2023-07-31T08:25:13;3.22;;;1.17;;
48092;SDS011;33873;47.442;18.902;2023-07-31T08:27:44;4.87;;;2.25;;
48092;SDS011;33873;47.442;18.902;2023-07-31T08:30:11;5.80;;;1.35;;
48092;SDS011;33873;47.442;18.902;2023-07-31T08:32:39;2.65;;;1.45;;
48092;SDS011;33873;47.442;18.902;2023-07-31T08:35:07;3.22;;;1.20;;
48092;SDS011;33873;47.442;18.902;2023-07-31T08:37:35;3.10;;;1.15;;
48092;SDS011;33873;47.442;18.902;2023-07-31T08:40:03;2.67;;;1.30;;
48092;SDS011;33873;47.442;18.902;2023-07-31T08:42:31;3.75;;;1.20;;
48092;SDS011;33873;47.442;18.902;2023-07-31T08:44:59;3.42;;;1.50;;
48092;SDS011;33873;47.442;18.902;2023-07-31T08:47:27;3.25;;;1.33;;
48092;SDS011;33873;47.442;18.902;2023-07-31T08:49:55;3.62;;;1.65;;
48092;SDS011;33873;47.442;18.902;2023-07-31T08:52:23;2.85;;;1.20;;
48092;SDS011;33873;47.442;18.902;2023-07-31T08:54:51;7.85;;;1.33;;
48092;SDS011;33873;47.442;18.902;2023-07-31T08:57:18;4.68;;;1.30;;
48092;SDS011;33873;47.442;18.902;2023-07-31T08:59:46;3.17;;;1.35;;
48092;SDS011;33873;47.442;18.902;2023-07-31T09:02:14;4.18;;;1.40;;
48092;SDS011;33873;47.442;18.902;2023-07-31T09:04:42;7.18;;;2.37;;
48092;SDS011;33873;47.442;18.902;2023-07-31T09:07:10;4.07;;;1.60;;
48092;SDS011;33873;47.442;18.902;2023-07-31T09:09:40;7.95;;;1.92;;
48092;SDS011;33873;47.442;18.902;2023-07-31T09:12:08;4.53;;;1.60;;
48092;SDS011;33873;47.442;18.902;2023-07-31T09:14:36;3.25;;;1.10;;
48092;SDS011;33873;47.442;18.902;2023-07-31T09:17:04;7.00;;;2.30;;
48092;SDS011;33873;47.442;18.902;2023-07-31T09:19:33;11.20;;;1.65;;
48092;SDS011;33873;47.442;18.902;2023-07-31T09:22:01;3.53;;;1.58;;
48092;SDS011;33873;47.442;18.902;2023-07-31T09:24:30;5.25;;;1.20;;
48092;SDS011;33873;47.442;18.902;2023-07-31T09:26:59;2.33;;;1.17;;
48092;SDS011;33873;47.442;18.902;2023-07-31T09:29:28;5.28;;;1.48;;
48092;SDS011;33873;47.442;18.902;2023-07-31T09:31:57;3.72;;;1.65;;
48092;SDS011;33873;47.442;18.902;2023-07-31T09:34:30;2.55;;;1.40;;
48092;SDS011;33873;47.442;18.902;2023-07-31T09:37:01;3.62;;;1.23;;
48092;SDS011;33873;47.442;18.902;2023-07-31T09:39:29;2.42;;;1.10;;
48092;SDS011;33873;47.442;18.902;2023-07-31T09:41:56;2.62;;;1.33;;
48092;SDS011;33873;47.442;18.902;2023-07-31T09:44:37;2.83;;;1.42;;
48092;SDS011;33873;47.442;18.902;2023-07-31T09:47:06;4.07;;;1.08;;
48092;SDS011;33873;47.442;18.902;2023-07-31T09:49:52;2.90;;;1.40;;
48092;SDS011;33873;47.442;18.902;2023-07-31T09:52:19;2.42;;;1.00;;
48092;SDS011;33873;47.442;18.902;2023-07-31T09:54:47;3.58;;;1.27;;
48092;SDS011;33873;47.442;18.902;2023-07-31T09:57:15;3.22;;;1.35;;
48092;SDS011;33873;47.442;18.902;2023-07-31T09:59:45;5.22;;;1.42;;
48092;SDS011;33873;47.442;18.902;2023-07-31T10:02:15;3.28;;;1.23;;
48092;SDS011;33873;47.442;18.902;2023-07-31T10:04:51;3.97;;;1.30;;
48092;SDS011;33873;47.442;18.902;2023-07-31T10:07:20;4.00;;;2.00;;
48092;SDS011;33873;47.442;18.902;2023-07-31T10:09:50;4.97;;;1.62;;
48092;SDS011;33873;47.442;18.902;2023-07-31T10:12:19;2.78;;;1.12;;
48092;SDS011;33873;47.442;18.902;2023-07-31T10:14:48;1.62;;;0.93;;
48092;SDS011;33873;47.442;18.902;2023-07-31T10:17:16;6.70;;;1.27;;
48092;SDS011;33873;47.442;18.902;2023-07-31T10:19:45;3.15;;;1.23;;
48092;SDS011;33873;47.442;18.902;2023-07-31T10:22:13;8.93;;;1.70;;
48092;SDS011;33873;47.442;18.902;2023-07-31T10:24:43;2.70;;;1.42;;
48092;SDS011;33873;47.442;18.902;2023-07-31T10:27:12;4.82;;;1.37;;
48092;SDS011;33873;47.442;18.902;2023-07-31T10:29:41;2.55;;;1.10;;
48092;SDS011;33873;47.442;18.902;2023-07-31T10:32:10;5.85;;;1.37;;
48092;SDS011;33873;47.442;18.902;2023-07-31T10:34:39;4.85;;;1.45;;
48092;SDS011;33873;47.442;18.902;2023-07-31T10:37:20;4.20;;;1.35;;
48092;SDS011;33873;47.442;18.902;2023-07-31T10:40:02;3.87;;;1.35;;
48092;SDS011;33873;47.442;18.902;2023-07-31T10:42:31;3.83;;;1.45;;
48092;SDS011;33873;47.442;18.902;2023-07-31T10:45:09;4.47;;;1.52;;
48092;SDS011;33873;47.442;18.902;2023-07-31T10:47:42;1.02;;;0.80;;
48092;SDS011;33873;47.442;18.902;2023-07-31T10:50:21;2.12;;;1.08;;
48092;SDS011;33873;47.442;18.902;2023-07-31T10:52:52;7.15;;;1.95;;
48092;SDS011;33873;47.442;18.902;2023-07-31T10:55:28;4.03;;;1.27;;
48092;SDS011;33873;47.442;18.902;2023-07-31T11:00:41;5.35;;;1.58;;
48092;SDS011;33873;47.442;18.902;2023-07-31T11:03:14;2.30;;;1.17;;
48092;SDS011;33873;47.442;18.902;2023-07-31T11:08:16;3.37;;;1.37;;
48092;SDS011;33873;47.442;18.902;2023-07-31T11:10:44;2.55;;;1.30;;
48092;SDS011;33873;47.442;18.902;2023-07-31T11:13:12;4.53;;;1.35;;
48092;SDS011;33873;47.442;18.902;2023-07-31T11:15:41;5.32;;;1.17;;
48092;SDS011;33873;47.442;18.902;2023-07-31T11:18:08;2.28;;;1.12;;
48092;SDS011;33873;47.442;18.902;2023-07-31T11:20:38;3.90;;;1.70;;
48092;SDS011;33873;47.442;18.902;2023-07-31T11:23:07;4.82;;;1.58;;
48092;SDS011;33873;47.442;18.902;2023-07-31T11:25:37;5.87;;;1.30;;
48092;SDS011;33873;47.442;18.902;2023-07-31T11:28:06;3.33;;;1.62;;
48092;SDS011;33873;47.442;18.902;2023-07-31T11:30:34;3.58;;;1.15;;
48092;SDS011;33873;47.442;18.902;2023-07-31T11:33:03;3.83;;;1.48;;
48092;SDS011;33873;47.442;18.902;2023-07-31T11:35:32;4.72;;;1.23;;
48092;SDS011;33873;47.442;18.902;2023-07-31T11:38:00;2.05;;;0.93;;
48092;SDS011;33873;47.442;18.902;2023-07-31T11:40:28;2.03;;;1.10;;
48092;SDS011;33873;47.442;18.902;2023-07-31T11:43:03;3.33;;;1.25;;
48092;SDS011;33873;47.442;18.902;2023-07-31T11:45:31;5.53;;;1.27;;
48092;SDS011;33873;47.442;18.902;2023-07-31T11:47:59;3.62;;;1.35;;
48092;SDS011;33873;47.442;18.902;2023-07-31T11:50:27;1.90;;;1.02;;
48092;SDS011;33873;47.442;18.902;2023-07-31T11:52:57;2.40;;;1.12;;
48092;SDS011;33873;47.442;18.902;2023-07-31T11:55:27;3.25;;;1.17;;
48092;SDS011;33873;47.442;18.902;2023-07-31T11:57:56;3.35;;;1.20;;
48092;SDS011;33873;47.442;18.902;2023-07-31T12:00:25;3.35;;;1.27;;
48092;SDS011;33873;47.442;18.902;2023-07-31T12:02:53;6.30;;;1.12;;
48092;SDS011;33873;47.442;18.902;2023-07-31T12:05:21;2.92;;;1.08;;
48092;SDS011;33873;47.442;18.902;2023-07-31T12:07:50;2.17;;;1.25;;
48092;SDS011;33873;47.442;18.902;2023-07-31T12:15:34;3.37;;;1.17;;
48092;SDS011;33873;47.442;18.902;2023-07-31T12:18:10;5.47;;;1.37;;
48092;SDS011;33873;47.442;18.902;2023-07-31T12:20:49;3.50;;;1.20;;
48092;SDS011;33873;47.442;18.902;2023-07-31T12:23:22;3.50;;;1.55;;
48092;SDS011;33873;47.442;18.902;2023-07-31T12:28:34;7.50;;;1.85;;
48092;SDS011;33873;47.442;18.902;2023-07-31T12:31:06;7.18;;;1.62;;
48092;SDS011;33873;47.442;18.902;2023-07-31T12:33:36;4.80;;;1.52;;
48092;SDS011;33873;47.442;18.902;2023-07-31T12:36:11;5.15;;;1.30;;
48092;SDS011;33873;47.442;18.902;2023-07-31T12:38:40;3.05;;;1.10;;
48092;SDS011;33873;47.442;18.902;2023-07-31T12:41:08;2.42;;;1.02;;
48092;SDS011;33873;47.442;18.902;2023-07-31T12:43:39;6.72;;;1.40;;
48092;SDS011;33873;47.442;18.902;2023-07-31T12:46:07;2.75;;;0.98;;
48092;SDS011;33873;47.442;18.902;2023-07-31T12:48:36;2.62;;;1.10;;
48092;SDS011;33873;47.442;18.902;2023-07-31T12:51:04;5.80;;;1.58;;
48092;SDS011;33873;47.442;18.902;2023-07-31T12:53:34;4.43;;;1.25;;
48092;SDS011;33873;47.442;18.902;2023-07-31T12:56:02;4.75;;;1.58;;
48092;SDS011;33873;47.442;18.902;2023-07-31T12:58:29;5.37;;;1.95;;
48092;SDS011;33873;47.442;18.902;2023-07-31T13:00:57;3.25;;;1.35;;
48092;SDS011;33873;47.442;18.902;2023-07-31T13:03:25;4.95;;;1.40;;
48092;SDS011;33873;47.442;18.902;2023-07-31T13:05:53;2.17;;;0.88;;
48092;SDS011;33873;47.442;18.902;2023-07-31T13:08:21;3.33;;;1.20;;
48092;SDS011;33873;47.442;18.902;2023-07-31T13:10:49;3.30;;;1.23;;
48092;SDS011;33873;47.442;18.902;2023-07-31T13:13:16;4.03;;;1.37;;
48092;SDS011;33873;47.442;18.902;2023-07-31T13:15:44;4.32;;;1.35;;
48092;SDS011;33873;47.442;18.902;2023-07-31T13:18:12;3.37;;;1.17;;
48092;SDS011;33873;47.442;18.902;2023-07-31T13:20:40;2.50;;;1.00;;
48092;SDS011;33873;47.442;18.902;2023-07-31T13:23:08;5.93;;;1.55;;
48092;SDS011;33873;47.442;18.902;2023-07-31T13:25:36;5.50;;;1.20;;
48092;SDS011;33873;47.442;18.902;2023-07-31T13:28:04;8.38;;;1.83;;
48092;SDS011;33873;47.442;18.902;2023-07-31T13:30:31;3.58;;;1.23;;
48092;SDS011;33873;47.442;18.902;2023-07-31T13:32:59;3.10;;;1.48;;
48092;SDS011;33873;47.442;18.902;2023-07-31T13:35:27;4.30;;;1.35;;
48092;SDS011;33873;47.442;18.902;2023-07-31T13:37:55;5.93;;;1.67;;
48092;SDS011;33873;47.442;18.902;2023-07-31T13:40:22;7.12;;;1.83;;
48092;SDS011;33873;47.442;18.902;2023-07-31T13:42:50;4.93;;;1.52;;
48092;SDS011;33873;47.442;18.902;2023-07-31T13:45:18;4.75;;;1.17;;
48092;SDS011;33873;47.442;18.902;2023-07-31T13:47:45;3.35;;;1.35;;
48092;SDS011;33873;47.442;18.902;2023-07-31T13:50:13;2.35;;;1.05;;
48092;SDS011;33873;47.442;18.902;2023-07-31T13:52:41;3.60;;;1.37;;
48092;SDS011;33873;47.442;18.902;2023-07-31T13:55:09;2.80;;;1.45;;
48092;SDS011;33873;47.442;18.902;2023-07-31T13:57:37;4.97;;;1.27;;
48092;SDS011;33873;47.442;18.902;2023-07-31T14:00:05;2.80;;;1.00;;
48092;SDS011;33873;47.442;18.902;2023-07-31T14:02:33;2.55;;;1.08;;
48092;SDS011;33873;47.442;18.902;2023-07-31T14:05:01;7.00;;;1.52;;
48092;SDS011;33873;47.442;18.902;2023-07-31T14:07:29;2.62;;;1.17;;
48092;SDS011;33873;47.442;18.902;2023-07-31T14:09:57;4.47;;;1.67;;
48092;SDS011;33873;47.442;18.902;2023-07-31T14:12:24;6.10;;;1.52;;
48092;SDS011;33873;47.442;18.902;2023-07-31T14:14:58;4.00;;;1.62;;
48092;SDS011;33873;47.442;18.902;2023-07-31T14:17:25;4.85;;;1.42;;
48092;SDS011;33873;47.442;18.902;2023-07-31T14:19:53;5.15;;;1.58;;
48092;SDS011;33873;47.442;18.902;2023-07-31T14:22:28;7.95;;;2.05;;
48092;SDS011;33873;47.442;18.902;2023-07-31T14:24:57;2.80;;;1.15;;
48092;SDS011;33873;47.442;18.902;2023-07-31T14:27:25;3.53;;;1.00;;
48092;SDS011;33873;47.442;18.902;2023-07-31T14:29:52;3.75;;;1.37;;
48092;SDS011;33873;47.442;18.902;2023-07-31T14:32:20;5.30;;;1.80;;
48092;SDS011;33873;47.442;18.902;2023-07-31T14:34:51;4.55;;;1.20;;
48092;SDS011;33873;47.442;18.902;2023-07-31T14:37:18;2.83;;;1.20;;
48092;SDS011;33873;47.442;18.902;2023-07-31T14:39:46;2.53;;;1.02;;
48092;SDS011;33873;47.442;18.902;2023-07-31T14:42:14;3.08;;;1.33;;
48092;SDS011;33873;47.442;18.902;2023-07-31T14:44:43;5.37;;;1.40;;
48092;SDS011;33873;47.442;18.902;2023-07-31T14:47:11;4.15;;;1.35;;
48092;SDS011;33873;47.442;18.902;2023-07-31T14:49:39;2.65;;;1.20;;
48092;SDS011;33873;47.442;18.902;2023-07-31T14:52:06;3.70;;;1.42;;
48092;SDS011;33873;47.442;18.902;2023-07-31T14:54:34;5.28;;;1.70;;
48092;SDS011;33873;47.442;18.902;2023-07-31T14:57:02;3.62;;;1.52;;
48092;SDS011;33873;47.442;18.902;2023-07-31T14:59:29;5.15;;;1.50;;